X  CloseMetar Aviation Weather Data     YMAV Avalon

Temperature

11°C Temperature

8°C Dewpoint

82% Humidity



Wind

10 KM/H

 6 MPH

 3 M/S

 5 KTS



290°
West North
West
Current Conditions

Mostly Scattered Clouds Mostly Scattered Clouds
Pressure 1015.92 (hPa) - 30 (in)
Visibility 6.2 (mi) - 10 (km)
Airport
Airport-code YMAV

Location Avalon 14 (km)

Metar:
YMAV 210900Z AUTO 29005KT 9999 // SCT031 BKN043 BKN054 11/08 Q1016

Time: 21-09-2019 19:00